Chatsworth, IA (51011)

4:17 AM CST on November 28, 2014 (GMT -0600)
Sioux Center | Change Station
CLOSE
Current Station
Personal Weather Station
Location: Sioux Center, IA
Elevation: 1411 ft
Nearby Weather Stations

Elev 1411 ft 43.06 °N, 96.17 °W | Updated 9 minutes ago

Partly Cloudy
Partly Cloudy
18.9 °F
Feels Like 19 °F
N
3.0
Wind Variable Wind from SSW
Gusts 7.0 mph

Today
High -- | Low -- °F
--% Chance of Precip.
Yesterday
High -- | Low -- °F
Precip. -- in
7:33 AM 4:53 PM
Waxing Crescent, 39% visible
Pressure 29.90 in
Visibility 10.0 miles
Clouds Clear
Windchill 19 °F
Dew Point 16 °F
Humidity 89%
Rainfall 0.00 in
Snow Depth Not available.
UV 0 out of 12
Pollen .10 out of 12
Air Quality Not available.
Flu Activity Not available.
METAR KORC 280955Z AUTO 16006KT 10SM CLR M07/M09 A2990 RMK AO2

More Conditions Fewer Conditions

Pressure 29.90 in
Visibility 10.0 miles
Clouds Clear
Windchill 19 °F
Dew Point 16 °F
Humidity 89%
Rainfall 0.00 in
Snow Depth Not available.
UV 0 out of 12
Pollen .10 out of 12
Air Quality Not available.
Flu Activity Not available.
METAR KORC 280955Z AUTO 16006KT 10SM CLR M07/M09 A2990 RMK AO2

More Conditions Fewer Conditions

10-Day Weather Forecast

Almanac

Astronomy

Nov. 28, 2014 Rise Set
Actual Time
Civil Twilight
Nautical Twilight
Astronomical Twilight
Moon
Length of Visible Light
Length of Day
Tomorrow will be .
, % of the Moon is Illuminated

Today's Extremes

State Highs State Lows

Community

WunderPhotos

Upload Photos

1,774,192 photos uploaded!

WunderBlogs® & News

Nearby

Air Quality

  Air Quality AQ Index Pollutant
Not available.

Snow Depth

Station Depth Elevation

Earthquake Activity

City Distance Mag. Time & Date
Minimum magnitude displayed is 2.5.

Coastal Water Temperatures

Place Temperature

Nearby Weather Stations